Time;durP1;ratioP1;P1;durP2;ratioP2;P2;SDS_P1;SDS_P2;PMS_P1;PMS_P2;Temp;Humidity;BMP_temperature;BMP_pressure;BME280_temperature;BME280_humidity;BME280_pressure;Samples;Min_cycle;Max_cycle;Signal;HPM_P1;HPM_P2
2023/02/09 00:01:38;;;;;;;23.70;10.70;;;;;;;-11.66;100.00;102746.02;105492;1256;59775;-55
2023/02/09 00:04:08;;;;;;;21.10;10.90;;;;;;;-11.66;100.00;102750.70;105968;1253;73657;-54
2023/02/09 00:06:36;;;;;;;21.10;10.80;;;;;;;-11.66;100.00;102751.55;105626;1258;67521;-56
2023/02/09 00:09:05;;;;;;;24.90;11.10;;;;;;;-11.68;100.00;102746.98;105507;1259;73876;-54
2023/02/09 00:14:24;;;;;;;31.50;14.10;;;;;;;-11.77;100.00;102745.20;105559;1256;60696;-56
2023/02/09 00:16:56;;;;;;;26.70;12.20;;;;;;;-11.85;100.00;102742.59;105401;1257;74499;-58
2023/02/09 00:19:24;;;;;;;25.60;13.30;;;;;;;-11.90;100.00;102745.71;105218;1254;67398;-55
2023/02/09 00:21:53;;;;;;;29.50;14.10;;;;;;;-11.96;100.00;102741.09;105502;1259;73957;-55
2023/02/09 00:24:22;;;;;;;29.20;12.50;;;;;;;-12.04;100.00;102742.00;105463;1257;63058;-55
2023/02/09 00:26:50;;;;;;;30.40;14.30;;;;;;;-12.07;100.00;102740.63;105408;1256;61311;-55
2023/02/09 00:29:22;;;;;;;27.50;13.90;;;;;;;-12.12;100.00;102740.39;109193;1253;74846;-56
2023/02/09 00:31:52;;;;;;;33.30;13.80;;;;;;;-12.14;100.00;102739.01;108542;1253;67532;-57
2023/02/09 00:34:21;;;;;;;31.00;15.10;;;;;;;-12.17;100.00;102737.62;105661;1257;74499;-55
2023/02/09 00:36:50;;;;;;;31.10;15.00;;;;;;;-12.17;100.00;102723.88;105894;1259;62832;-57
2023/02/09 00:39:19;;;;;;;27.50;13.00;;;;;;;-12.18;100.00;102719.34;105163;1258;61624;-55
2023/02/09 00:42:06;;;;;;;26.10;11.90;;;;;;;-12.26;100.00;102716.70;105425;1255;73594;-55
2023/02/09 00:44:38;;;;;;;25.90;13.20;;;;;;;-12.41;100.00;102715.98;105640;1256;68049;-58
2023/02/09 00:47:08;;;;;;;30.40;13.50;;;;;;;-12.54;100.00;102718.80;105403;1257;73994;-55
2023/02/09 00:49:38;;;;;;;36.50;15.50;;;;;;;-12.61;100.00;102712.31;105556;1254;62841;-57
2023/02/09 00:52:07;;;;;;;36.70;16.10;;;;;;;-12.69;100.00;102711.86;106279;1257;61709;-56
2023/02/09 00:54:37;;;;;;;33.30;15.90;;;;;;;-12.76;100.00;102708.23;105589;1256;72645;-55
2023/02/09 00:57:06;;;;;;;38.40;16.10;;;;;;;-12.82;100.00;102709.65;105650;1257;68594;-55
2023/02/09 00:59:35;;;;;;;37.00;16.50;;;;;;;-12.87;100.00;102712.89;105653;1257;72669;-56
2023/02/09 01:02:04;;;;;;;35.70;17.50;;;;;;;-12.91;100.00;102713.85;105398;1254;62425;-57
2023/02/09 01:04:33;;;;;;;30.40;14.20;;;;;;;-12.92;100.00;102712.30;105414;1253;61888;-56
2023/02/09 01:07:04;;;;;;;35.00;15.90;;;;;;;-12.95;100.00;102707.89;105467;1255;74333;-56
2023/02/09 01:09:32;;;;;;;35.50;16.40;;;;;;;-12.97;100.00;102710.55;105741;1258;68799;-55
2023/02/09 01:12:04;;;;;;;23.50;11.60;;;;;;;-12.92;100.00;102707.44;105515;1256;73182;-54
2023/02/09 01:14:32;;;;;;;26.60;13.10;;;;;;;-12.88;100.00;102711.38;105563;1257;61539;-54
2023/02/09 01:17:00;;;;;;;32.00;16.40;;;;;;;-12.80;100.00;102712.02;105557;1253;60609;-56
2023/02/09 01:19:30;;;;;;;28.40;15.20;;;;;;;-12.72;100.00;102708.79;105820;1257;74549;-57
2023/02/09 01:21:59;;;;;;;26.50;11.70;;;;;;;-12.69;100.00;102709.84;105888;1253;68969;-56
2023/02/09 01:24:27;;;;;;;29.40;13.50;;;;;;;-12.66;100.00;102710.41;105211;1258;73763;-56
2023/02/09 01:26:56;;;;;;;26.60;11.80;;;;;;;-12.64;100.00;102705.75;105449;1257;61787;-53
2023/02/09 01:29:24;;;;;;;23.70;11.30;;;;;;;-12.63;100.00;102700.40;105762;1255;62587;-56
2023/02/09 01:31:53;;;;;;;23.70;10.70;;;;;;;-12.59;100.00;102697.79;105837;1254;72007;-54
2023/02/09 01:34:23;;;;;;;25.50;12.10;;;;;;;-12.57;100.00;102698.49;105478;1257;68795;-53
2023/02/09 01:36:51;;;;;;;23.70;11.00;;;;;;;-12.56;100.00;102703.19;105512;1256;74139;-53
2023/02/09 01:39:20;;;;;;;18.00;8.50;;;;;;;-12.56;100.00;102700.67;105489;1257;61394;-54
2023/02/09 01:41:49;;;;;;;17.80;8.50;;;;;;;-12.57;100.00;102696.48;105572;1256;61956;-55
2023/02/09 01:44:18;;;;;;;22.50;10.80;;;;;;;-12.60;100.00;102698.45;105431;1254;73606;-55
2023/02/09 01:46:47;;;;;;;21.80;11.10;;;;;;;-12.61;100.00;102698.09;105534;1256;68227;-55
2023/02/09 01:49:19;;;;;;;20.60;11.00;;;;;;;-12.63;100.00;102696.54;105483;1255;73312;-54
2023/02/09 01:51:55;;;;;;;19.00;9.80;;;;;;;-12.65;100.00;102694.52;105404;1253;61887;-56
2023/02/09 01:54:28;;;;;;;25.50;10.80;;;;;;;-12.65;100.00;102691.16;105296;1257;60837;-55
2023/02/09 01:57:01;;;;;;;23.70;11.50;;;;;;;-12.66;100.00;102692.31;105430;1253;73255;-55
2023/02/09 01:59:30;;;;;;;24.40;12.70;;;;;;;-12.69;100.00;102693.42;105165;1259;68586;-55
2023/02/09 02:01:58;;;;;;;21.80;10.10;;;;;;;-12.72;100.00;102699.26;105501;1260;74657;-54
2023/02/09 02:04:27;;;;;;;23.20;11.60;;;;;;;-12.75;100.00;102700.53;105688;1256;62654;-56
2023/02/09 02:07:12;;;;;;;22.40;11.20;;;;;;;-12.77;100.00;102702.34;105497;1254;61359;-54
2023/02/09 02:09:42;;;;;;;23.70;10.40;;;;;;;-12.78;100.00;102702.49;105339;1254;73803;-54
2023/02/09 02:12:13;;;;;;;24.60;11.30;;;;;;;-12.79;100.00;102704.66;105498;1261;67776;-56
2023/02/09 02:14:41;;;;;;;21.50;9.00;;;;;;;-12.80;100.00;102705.16;105454;1257;73577;-54
2023/02/09 02:17:30;;;;;;;22.30;10.90;;;;;;;-12.81;100.00;102706.63;105685;1254;62417;-57
2023/02/09 02:20:30;;;;;;;25.90;11.60;;;;;;;-12.80;100.00;102703.46;105515;1254;62146;-55
2023/02/09 02:23:43;;;;;;;21.60;10.60;;;;;;;-12.80;100.00;102702.98;105255;1256;74569;-55
2023/02/09 02:26:20;;;;;;;40.20;19.70;;;;;;;-12.86;100.00;102704.88;105669;1257;68359;-55
2023/02/09 02:29:04;;;;;;;33.60;17.10;;;;;;;-12.90;100.00;102703.45;105333;1259;73948;-55
2023/02/09 02:31:38;;;;;;;26.00;12.90;;;;;;;-12.96;100.00;102700.52;105545;1253;62078;-55
2023/02/09 02:34:19;;;;;;;27.40;13.20;;;;;;;-13.03;100.00;102694.54;105544;1254;62224;-55
2023/02/09 02:37:00;;;;;;;28.30;12.20;;;;;;;-13.09;100.00;102692.76;105553;1257;75420;-55
2023/02/09 02:39:37;;;;;;;27.70;12.60;;;;;;;-13.14;100.00;102691.33;105318;1258;67461;-55
2023/02/09 02:45:13;;;;;;;23.60;12.30;;;;;;;-13.18;100.00;102691.45;105425;1259;62792;-55
2023/02/09 02:47:45;;;;;;;27.20;12.50;;;;;;;-13.17;100.00;102695.30;105766;1254;60825;-55
2023/02/09 02:50:17;;;;;;;31.10;13.90;;;;;;;-13.18;100.00;102693.11;105694;1258;75237;-55
2023/02/09 02:52:46;;;;;;;27.90;13.90;;;;;;;-13.19;100.00;102694.25;105709;1254;67290;-54
2023/02/09 02:55:16;;;;;;;29.80;13.20;;;;;;;-13.21;100.00;102687.86;105712;1253;74163;-56
2023/02/09 02:57:49;;;;;;;25.50;12.80;;;;;;;-13.22;100.00;102690.36;105547;1254;61575;-55
2023/02/09 03:00:19;;;;;;;30.30;14.50;;;;;;;-13.21;100.00;102687.86;105457;1260;60848;-55
2023/02/09 03:02:49;;;;;;;32.00;16.60;;;;;;;-13.16;100.00;102685.77;105759;1257;74491;-57
2023/02/09 03:05:18;;;;;;;42.90;19.80;;;;;;;-13.10;100.00;102685.39;105312;1257;68057;-56
2023/02/09 03:07:47;;;;;;;40.20;17.80;;;;;;;-13.06;100.00;102683.11;105592;1253;72902;-57
2023/02/09 03:10:27;;;;;;;35.10;17.90;;;;;;;-13.07;100.00;102681.09;105677;1258;62765;-57
2023/02/09 03:13:16;;;;;;;35.90;17.50;;;;;;;-13.10;100.00;102683.20;105460;1257;60332;-57
2023/02/09 03:16:04;;;;;;;37.10;19.80;;;;;;;-13.10;100.00;102687.73;105768;1258;74456;-57
2023/02/09 03:18:39;;;;;;;40.80;18.70;;;;;;;-13.10;100.00;102689.41;105845;1255;68744;-55
2023/02/09 03:21:15;;;;;;;26.00;13.60;;;;;;;-13.09;100.00;102690.93;105628;1259;74354;-59
2023/02/09 03:23:47;;;;;;;28.20;14.70;;;;;;;-13.07;100.00;102692.65;105685;1259;60875;-56
2023/02/09 03:26:22;;;;;;;26.70;13.70;;;;;;;-13.06;100.00;102691.48;105573;1260;61540;-55
2023/02/09 03:28:52;;;;;;;25.10;13.40;;;;;;;-13.07;100.00;102692.64;105656;1257;74451;-55
2023/02/09 03:31:21;;;;;;;32.40;14.70;;;;;;;-13.11;100.00;102692.73;105650;1257;67093;-56
2023/02/09 03:33:50;;;;;;;25.70;13.00;;;;;;;-13.20;100.00;102686.54;105428;1257;72200;-56
2023/02/09 03:36:18;;;;;;;25.40;11.20;;;;;;;-13.28;100.00;102682.41;105417;1254;62859;-56
2023/02/09 03:38:48;;;;;;;28.70;14.20;;;;;;;-13.37;100.00;102680.23;105266;1254;61024;-56
2023/02/09 03:41:16;;;;;;;23.70;9.70;;;;;;;-13.47;100.00;102680.05;105761;1257;75215;-57
2023/02/09 03:46:32;;;;;;;18.60;9.10;;;;;;;-13.69;100.00;102683.48;105388;1255;73295;-55
2023/02/09 03:49:01;;;;;;;21.50;10.30;;;;;;;-13.75;100.00;102687.71;105844;1254;62703;-56
2023/02/09 03:51:30;;;;;;;19.60;9.80;;;;;;;-13.79;100.00;102686.13;105702;1254;60582;-56
2023/02/09 03:53:58;;;;;;;20.80;9.50;;;;;;;-13.83;100.00;102689.38;105579;1253;75351;-56
2023/02/09 03:56:27;;;;;;;22.10;10.30;;;;;;;-13.84;100.00;102689.36;105462;1255;67468;-58
2023/02/09 03:58:55;;;;;;;19.60;9.70;;;;;;;-13.84;100.00;102694.04;105437;1257;74229;-59
2023/02/09 04:01:24;;;;;;;25.30;10.60;;;;;;;-13.87;100.00;102694.96;105398;1259;62722;-56
2023/02/09 04:03:53;;;;;;;23.10;9.70;;;;;;;-13.91;100.00;102694.23;105750;1255;60586;-55
2023/02/09 04:06:21;;;;;;;19.60;9.10;;;;;;;-13.91;100.00;102692.05;105411;1258;75364;-56
2023/02/09 04:08:50;;;;;;;22.80;10.20;;;;;;;-13.92;100.00;102693.54;105918;1256;68574;-57
2023/02/09 04:11:19;;;;;;;24.50;11.60;;;;;;;-13.97;100.00;102693.10;105482;1257;74794;-56
2023/02/09 04:13:51;;;;;;;26.60;12.10;;;;;;;-14.04;100.00;102692.46;105413;1258;61939;-56
2023/02/09 04:16:20;;;;;;;25.10;11.40;;;;;;;-14.11;100.00;102690.95;105562;1253;60901;-57
2023/02/09 04:18:49;;;;;;;28.30;11.70;;;;;;;-14.18;100.00;102688.14;105827;1257;74393;-55
2023/02/09 04:21:17;;;;;;;22.10;11.20;;;;;;;-14.21;100.00;102686.40;105659;1258;66562;-55
2023/02/09 04:23:46;;;;;;;29.60;13.70;;;;;;;-14.17;100.00;102684.48;105768;1254;74232;-56
2023/02/09 04:26:15;;;;;;;38.20;15.80;;;;;;;-14.06;100.00;102683.88;105804;1257;62589;-56
2023/02/09 04:28:44;;;;;;;32.50;15.30;;;;;;;-14.00;100.00;102680.84;105919;1256;60685;-56
2023/02/09 04:31:13;;;;;;;30.70;13.20;;;;;;;-13.98;100.00;102685.89;105861;1254;75403;-58
2023/02/09 04:33:42;;;;;;;32.20;13.70;;;;;;;-13.97;100.00;102690.25;105983;1256;69051;-57
2023/02/09 04:36:11;;;;;;;30.10;13.30;;;;;;;-13.99;100.00;102689.73;105905;1257;74114;-56
2023/02/09 04:38:39;;;;;;;27.30;12.30;;;;;;;-14.04;100.00;102695.45;105799;1254;62739;-54
2023/02/09 04:41:08;;;;;;;26.60;11.40;;;;;;;-14.13;100.00;102695.45;105918;1254;62245;-56
2023/02/09 04:43:37;;;;;;;23.60;10.80;;;;;;;-14.20;100.00;102698.45;105884;1257;74149;-54
2023/02/09 04:46:13;;;;;;;25.90;11.80;;;;;;;-14.26;100.00;102698.98;105788;1260;68643;-56
2023/02/09 04:48:42;;;;;;;27.00;12.00;;;;;;;-14.31;100.00;102701.71;105942;1257;74185;-56
2023/02/09 04:51:10;;;;;;;23.80;10.70;;;;;;;-14.30;100.00;102701.08;105752;1254;62762;-56
2023/02/09 04:53:39;;;;;;;24.60;11.20;;;;;;;-14.21;100.00;102700.43;105745;1253;61784;-55
2023/02/09 04:56:09;;;;;;;25.90;11.00;;;;;;;-14.10;100.00;102697.16;105794;1254;75216;-55
2023/02/09 05:01:24;;;;;;;24.50;11.00;;;;;;;-13.86;100.00;102696.16;105679;1254;74455;-56
2023/02/09 05:03:53;;;;;;;28.80;13.60;;;;;;;-13.75;100.00;102692.71;105667;1253;62374;-54
2023/02/09 05:06:22;;;;;;;102.20;46.90;;;;;;;-13.64;100.00;102693.44;105830;1257;61300;-57
2023/02/09 05:08:51;;;;;;;32.50;14.70;;;;;;;-13.56;100.00;102689.25;105780;1257;75439;-58
2023/02/09 05:11:20;;;;;;;33.20;13.80;;;;;;;-13.47;100.00;102693.45;105859;1254;68601;-55
2023/02/09 05:13:48;;;;;;;40.20;17.00;;;;;;;-13.39;100.00;102695.59;105819;1257;72339;-56
2023/02/09 05:16:17;;;;;;;38.80;15.10;;;;;;;-13.34;100.00;102696.18;105849;1259;61304;-54
2023/02/09 05:18:46;;;;;;;36.10;15.30;;;;;;;-13.28;100.00;102685.27;105810;1253;62245;-58
2023/02/09 05:21:14;;;;;;;41.60;17.70;;;;;;;-13.19;100.00;102680.04;105750;1256;73890;-54
2023/02/09 05:23:43;;;;;;;40.40;16.50;;;;;;;-13.06;100.00;102681.79;105674;1254;68518;-54
2023/02/09 05:26:12;;;;;;;43.10;18.30;;;;;;;-12.88;100.00;102679.73;105759;1257;74471;-54
2023/02/09 05:28:41;;;;;;;39.30;18.00;;;;;;;-12.66;100.00;102682.61;105840;1252;62460;-57
2023/02/09 05:31:09;;;;;;;47.20;19.80;;;;;;;-12.41;100.00;102680.48;105805;1254;60746;-54
2023/02/09 05:33:38;;;;;;;51.90;23.20;;;;;;;-12.18;100.00;102679.62;105770;1253;73564;-54
2023/02/09 05:36:08;;;;;;;84.30;38.50;;;;;;;-11.92;100.00;102674.25;105747;1257;67210;-56
2023/02/09 05:38:38;;;;;;;90.60;41.90;;;;;;;-11.59;100.00;102671.45;105742;1256;73917;-56
2023/02/09 05:41:08;;;;;;;229.00;84.40;;;;;;;-11.24;100.00;102672.14;105590;1254;62085;-56
2023/02/09 05:43:36;;;;;;;60.90;27.70;;;;;;;-10.84;100.00;102677.87;105686;1257;60570;-53
2023/02/09 05:46:04;;;;;;;67.20;26.70;;;;;;;-10.34;100.00;102679.41;105740;1254;75373;-54
2023/02/09 05:48:35;;;;;;;174.20;87.40;;;;;;;-9.60;100.00;102679.41;105786;1256;67453;-58
2023/02/09 05:51:04;;;;;;;47.90;24.10;;;;;;;-8.74;100.00;102679.38;105839;1257;74138;-56
2023/02/09 05:53:34;;;;;;;42.60;20.20;;;;;;;-7.80;100.00;102673.42;105632;1257;60831;-54
2023/02/09 05:56:03;;;;;;;32.20;17.70;;;;;;;-6.87;100.00;102669.50;105624;1254;61207;-56
2023/02/09 05:58:31;;;;;;;39.60;22.30;;;;;;;-5.98;100.00;102668.80;105772;1254;74312;-57
2023/02/09 06:00:59;;;;;;;28.70;17.40;;;;;;;-5.14;100.00;102667.84;105677;1254;68535;-55
2023/02/09 06:03:28;;;;;;;26.30;16.10;;;;;;;-4.35;100.00;102661.62;105669;1256;73742;-56
2023/02/09 06:05:58;;;;;;;31.40;19.00;;;;;;;-3.75;100.00;102654.34;105817;1256;59821;-55
2023/02/09 06:08:27;;;;;;;26.30;18.10;;;;;;;-3.20;100.00;102653.81;105802;1254;61985;-55
2023/02/09 06:11:00;;;;;;;25.60;16.20;;;;;;;-2.59;100.00;102653.17;105722;1257;75424;-54
2023/02/09 06:13:29;;;;;;;26.10;16.50;;;;;;;-2.06;100.00;102646.13;106060;1254;67693;-54
2023/02/09 06:15:58;;;;;;;25.60;18.50;;;;;;;-1.53;100.00;102639.83;105772;1254;75042;-55
2023/02/09 06:18:27;;;;;;;25.20;17.00;;;;;;;-0.96;100.00;102640.08;105653;1257;60581;-55
2023/02/09 06:20:57;;;;;;;36.00;25.20;;;;;;;-0.43;100.00;102639.86;105742;1254;60666;-55
2023/02/09 06:23:25;;;;;;;84.30;58.80;;;;;;;0.01;100.00;102635.89;105856;1254;74481;-57
2023/02/09 06:25:54;;;;;;;49.10;32.50;;;;;;;0.20;100.00;102631.56;105711;1257;67865;-57
2023/02/09 06:28:23;;;;;;;31.10;19.20;;;;;;;0.06;100.00;102632.44;105456;1254;74582;-55
2023/02/09 06:30:52;;;;;;;29.20;18.10;;;;;;;-0.43;100.00;102635.23;105797;1254;61144;-55
2023/02/09 06:33:21;;;;;;;51.10;28.40;;;;;;;-0.95;100.00;102629.48;105753;1257;61879;-55
2023/02/09 06:35:50;;;;;;;35.00;22.10;;;;;;;-1.42;100.00;102622.95;105737;1256;74920;-60
2023/02/09 06:38:20;;;;;;;30.70;19.80;;;;;;;-1.84;100.00;102625.91;105949;1258;68931;-55
2023/02/09 06:40:49;;;;;;;43.80;26.40;;;;;;;-2.18;100.00;102626.73;105841;1258;73948;-55
2023/02/09 06:43:17;;;;;;;48.80;27.80;;;;;;;-2.44;100.00;102631.01;105828;1257;60435;-55
2023/02/09 06:45:46;;;;;;;36.20;22.20;;;;;;;-2.57;100.00;102633.04;105910;1257;60792;-59
2023/02/09 06:48:14;;;;;;;27.00;17.50;;;;;;;-2.44;100.00;102634.92;105702;1253;74887;-56
2023/02/09 06:50:43;;;;;;;28.60;17.90;;;;;;;-2.15;100.00;102633.10;105601;1254;68636;-56
2023/02/09 06:53:12;;;;;;;30.20;21.10;;;;;;;-1.89;100.00;102627.79;105732;1257;74232;-56
2023/02/09 06:55:41;;;;;;;28.40;18.70;;;;;;;-1.75;100.00;102622.92;105962;1256;61143;-58
2023/02/09 06:58:10;;;;;;;31.60;18.50;;;;;;;-1.56;100.00;102621.00;105542;1257;60517;-57
2023/02/09 07:00:38;;;;;;;28.80;17.60;;;;;;;-1.57;100.00;102620.02;105702;1254;73622;-57
2023/02/09 07:03:07;;;;;;;30.60;20.40;;;;;;;-1.78;100.00;102619.77;105841;1253;68520;-55
2023/02/09 07:05:36;;;;;;;39.80;23.70;;;;;;;-2.03;100.00;102618.48;105918;1253;74178;-59
2023/02/09 07:08:05;;;;;;;43.80;23.20;;;;;;;-2.22;100.00;102626.67;105894;1257;60472;-55
2023/02/09 07:10:34;;;;;;;38.80;22.20;;;;;;;-2.39;100.00;102627.63;105826;1254;60596;-55
2023/02/09 07:13:06;;;;;;;;;;;;;;;-2.50;100.00;102631.33;105889;1253;75735;-56
2023/02/09 07:15:34;;;;;;;35.60;20.50;;;;;;;-2.44;100.00;102629.95;106088;1254;67661;-60
2023/02/09 07:18:06;;;;;;;36.70;20.40;;;;;;;-2.15;100.00;102631.91;105509;1257;74357;-57
2023/02/09 07:20:35;;;;;;;34.00;20.00;;;;;;;-1.70;100.00;102626.20;105728;1257;60923;-56
2023/02/09 07:23:03;;;;;;;42.80;24.50;;;;;;;-1.19;100.00;102617.45;105830;1254;61885;-57
2023/02/09 07:25:32;;;;;;;48.80;31.10;;;;;;;-0.70;100.00;102615.31;106104;1257;75139;-60
2023/02/09 07:28:01;;;;;;;35.80;22.50;;;;;;;-0.38;100.00;102607.38;105695;1253;69002;-56
2023/02/09 07:30:30;;;;;;;34.50;22.10;;;;;;;-0.29;100.00;102602.77;105660;1257;73523;-57
2023/02/09 07:32:58;;;;;;;32.00;20.40;;;;;;;-0.31;100.00;102600.98;105639;1253;61131;-56
2023/02/09 07:35:27;;;;;;;40.00;22.50;;;;;;;-0.30;100.00;102599.75;106002;1253;61933;-60
2023/02/09 07:37:56;;;;;;;32.00;20.40;;;;;;;-0.22;100.00;102599.48;105797;1252;75383;-56
2023/02/09 07:40:25;;;;;;;31.10;19.20;;;;;;;-0.20;100.00;102594.27;105746;1255;68717;-55
2023/02/09 07:42:53;;;;;;;35.50;21.80;;;;;;;-0.29;100.00;102595.45;105673;1254;72973;-56
2023/02/09 07:45:23;;;;;;;28.30;18.30;;;;;;;-0.39;100.00;102588.48;106074;1253;60867;-58
2023/02/09 07:47:51;;;;;;;31.90;19.40;;;;;;;-0.43;100.00;102583.67;105845;1257;62051;-55
2023/02/09 07:50:20;;;;;;;26.20;17.70;;;;;;;-0.22;100.00;102579.12;105713;1253;75376;-56
2023/02/09 07:52:54;;;;;;;30.10;20.40;;;;;;;0.10;100.00;102572.13;105778;1257;68765;-55
2023/02/09 07:55:23;;;;;;;26.70;17.20;;;;;;;0.27;100.00;102571.14;105579;1254;74645;-57
2023/02/09 07:57:52;;;;;;;25.40;17.70;;;;;;;0.36;100.00;102574.73;105706;1257;61342;-56
2023/02/09 08:00:22;;;;;;;24.20;16.50;;;;;;;0.45;100.00;102572.33;105786;1253;61557;-56
2023/02/09 08:02:52;;;;;;;25.90;16.90;;;;;;;0.54;100.00;102568.88;105944;1253;75441;-57
2023/02/09 08:05:34;;;;;;;24.20;15.30;;;;;;;0.49;100.00;102567.34;105859;1257;67431;-56
2023/02/09 08:08:03;;;;;;;27.40;16.60;;;;;;;0.39;100.00;102571.02;105807;1256;74086;-55
2023/02/09 08:10:32;;;;;;;24.30;15.30;;;;;;;0.18;100.00;102567.19;105548;1257;61090;-55
2023/02/09 08:13:04;;;;;;;21.40;14.60;;;;;;;-0.04;100.00;102563.44;105975;1252;61819;-55
2023/02/09 08:15:41;;;;;;;22.70;13.50;;;;;;;-0.27;100.00;102570.25;105989;1253;75265;-56
2023/02/09 08:18:16;;;;;;;23.00;14.70;;;;;;;-0.34;100.00;102574.79;105705;1253;68619;-56
2023/02/09 08:20:44;;;;;;;23.70;14.90;;;;;;;-0.25;100.00;102573.61;105900;1257;74232;-56
2023/02/09 08:23:19;;;;;;;22.60;13.90;;;;;;;-0.13;100.00;102565.80;105990;1257;60989;-57
2023/02/09 08:25:50;;;;;;;25.30;15.40;;;;;;;0.06;100.00;102568.36;105771;1256;61762;-56
2023/02/09 08:28:19;;;;;;;24.20;15.10;;;;;;;0.28;100.00;102570.74;105762;1252;73757;-58
2023/02/09 08:30:48;;;;;;;23.90;15.30;;;;;;;0.60;100.00;102568.81;105803;1256;68957;-57
2023/02/09 08:33:18;;;;;;;23.30;15.20;;;;;;;0.88;100.00;102564.73;105911;1253;73224;-57
2023/02/09 08:35:51;;;;;;;23.70;14.50;;;;;;;1.15;100.00;102563.93;105679;1257;60907;-58
2023/02/09 08:38:19;;;;;;;21.90;14.90;;;;;;;1.49;100.00;102556.84;105920;1253;61876;-62
2023/02/09 08:40:48;;;;;;;26.20;16.50;;;;;;;1.85;100.00;102549.92;105786;1253;73483;-58
2023/02/09 08:43:17;;;;;;;25.00;15.50;;;;;;;2.14;100.00;102548.90;105876;1254;67410;-58
2023/02/09 08:45:45;;;;;;;20.80;12.70;;;;;;;2.53;100.00;102553.55;105649;1257;74096;-57
2023/02/09 08:48:15;;;;;;;22.00;14.80;;;;;;;3.02;100.00;102551.84;105701;1257;61242;-55
2023/02/09 08:50:44;;;;;;;18.50;12.60;;;;;;;3.37;97.26;102548.48;105724;1257;61044;-56
2023/02/09 08:53:12;;;;;;;16.40;10.50;;;;;;;3.70;93.25;102542.06;105856;1254;75320;-59
2023/02/09 08:55:41;;;;;;;17.90;11.20;;;;;;;3.89;85.96;102536.63;105707;1255;68359;-56
2023/02/09 08:58:10;;;;;;;16.10;10.80;;;;;;;3.96;82.94;102534.14;105698;1258;74391;-57
2023/02/09 09:00:39;;;;;;;21.90;13.40;;;;;;;4.00;77.36;102531.54;105786;1252;60714;-57
2023/02/09 09:03:08;;;;;;;28.00;19.60;;;;;;;4.11;76.05;102533.33;106017;1257;60648;-58
2023/02/09 09:05:38;;;;;;;28.00;19.10;;;;;;;4.28;70.34;102528.75;105456;1257;75088;-56
2023/02/09 09:08:06;;;;;;;24.50;16.90;;;;;;;4.28;67.47;102524.80;105762;1256;67708;-55
2023/02/09 09:10:37;;;;;;;21.50;14.80;;;;;;;4.34;67.39;102520.85;105741;1254;73620;-58
2023/02/09 09:13:06;;;;;;;25.00;16.20;;;;;;;4.48;65.94;102517.82;105952;1257;60567;-56
2023/02/09 09:15:35;;;;;;;24.40;15.60;;;;;;;4.59;65.63;102512.71;105443;1253;61756;-57
2023/02/09 09:18:05;;;;;;;22.80;15.90;;;;;;;4.73;62.35;102508.12;105737;1253;75474;-56
2023/02/09 09:20:33;;;;;;;25.00;16.00;;;;;;;4.74;59.93;102503.95;105641;1257;68072;-56
2023/02/09 09:23:02;;;;;;;20.70;14.10;;;;;;;4.71;58.26;102504.77;105817;1254;74221;-58
2023/02/09 09:25:31;;;;;;;25.10;16.30;;;;;;;4.74;57.74;102507.73;105488;1254;60583;-55
2023/02/09 09:28:00;;;;;;;22.00;14.70;;;;;;;4.72;56.13;102509.39;105695;1253;60505;-56
2023/02/09 09:30:29;;;;;;;22.10;14.00;;;;;;;4.69;57.33;102509.19;105668;1253;75122;-56
2023/02/09 09:32:58;;;;;;;20.40;14.00;;;;;;;4.81;56.38;102506.23;106002;1253;67245;-59
2023/02/09 09:35:27;;;;;;;22.80;14.30;;;;;;;5.02;56.00;102502.80;105879;1253;74183;-58
2023/02/09 09:37:57;;;;;;;22.70;16.00;;;;;;;5.19;55.15;102498.98;105364;1257;60477;-57
2023/02/09 09:40:31;;;;;;;19.30;13.20;;;;;;;5.35;53.60;102499.05;105455;1254;61496;-57
2023/02/09 09:43:04;;;;;;;19.50;13.10;;;;;;;5.32;51.16;102496.33;105681;1253;74697;-59
2023/02/09 09:45:34;;;;;;;17.00;11.90;;;;;;;5.22;52.85;102498.46;105397;1257;68369;-56
2023/02/09 09:48:03;;;;;;;16.40;12.10;;;;;;;5.36;53.45;102495.86;105509;1253;72018;-57
2023/02/09 09:50:40;;;;;;;17.40;11.90;;;;;;;5.42;52.14;102493.12;105315;1259;60536;-56
2023/02/09 09:53:45;;;;;;;18.20;13.00;;;;;;;5.35;52.33;102490.44;105252;1253;61653;-57
2023/02/09 09:56:13;;;;;;;16.30;10.60;;;;;;;5.25;52.22;102485.16;105123;1253;73396;-59
2023/02/09 09:58:43;;;;;;;16.70;11.10;;;;;;;5.13;52.13;102482.65;105319;1258;68095;-55
2023/02/09 10:01:13;;;;;;;16.50;11.80;;;;;;;5.01;53.30;102481.98;105406;1256;74399;-55
2023/02/09 10:03:42;;;;;;;15.50;10.60;;;;;;;4.87;53.40;102481.61;105756;1253;60604;-56
2023/02/09 10:06:15;;;;;;;16.30;11.80;;;;;;;4.65;53.93;102479.63;105646;1252;61856;-58
2023/02/09 10:09:09;;;;;;;17.50;11.00;;;;;;;4.46;55.78;102473.70;105627;1252;75575;-54
2023/02/09 10:11:39;;;;;;;17.80;11.60;;;;;;;4.35;57.93;102471.91;105599;1255;68961;-57
2023/02/09 10:14:08;;;;;;;17.30;12.10;;;;;;;4.26;58.69;102466.91;105429;1253;72905;-56
2023/02/09 10:16:43;;;;;;;17.90;11.90;;;;;;;4.07;60.23;102463.02;105514;1257;60490;-56
2023/02/09 10:19:24;;;;;;;17.70;12.40;;;;;;;3.94;61.39;102459.41;105151;1258;185002;-55
2023/02/09 10:21:53;;;;;;;16.30;10.80;;;;;;;3.85;61.67;102460.61;105471;1253;75562;-55
2023/02/09 10:24:26;;;;;;;14.00;9.40;;;;;;;3.79;61.93;102454.92;105384;1254;68612;-56
2023/02/09 10:27:09;;;;;;;14.80;10.00;;;;;;;3.78;63.42;102449.13;105822;1257;74161;-56
2023/02/09 10:29:38;;;;;;;16.20;10.10;;;;;;;3.75;61.47;102449.85;105305;1258;61773;-55
2023/02/09 10:32:12;;;;;;;16.40;10.60;;;;;;;3.55;60.40;102446.42;105354;1253;61545;-54
2023/02/09 10:34:44;;;;;;;14.30;9.50;;;;;;;3.38;63.06;102444.43;105553;1252;74282;-54
2023/02/09 10:37:15;;;;;;;14.90;10.00;;;;;;;3.32;64.50;102438.09;105530;1254;67441;-54
2023/02/09 10:39:44;;;;;;;20.40;13.50;;;;;;;3.24;63.01;102436.45;105540;1257;72937;-53
2023/02/09 10:42:13;;;;;;;19.10;12.60;;;;;;;3.02;63.60;102439.13;105472;1252;60867;-55
2023/02/09 10:44:45;;;;;;;15.30;10.10;;;;;;;2.84;65.77;102434.95;105543;1257;60606;-59
2023/02/09 10:47:20;;;;;;;20.10;11.70;;;;;;;2.74;67.56;102432.17;105452;1253;75153;-56
2023/02/09 10:49:54;;;;;;;26.90;13.90;;;;;;;2.70;68.04;102431.86;105510;1253;69301;-55
2023/02/09 10:52:23;;;;;;;21.70;13.00;;;;;;;2.57;67.73;102432.19;105257;1253;74476;-59
2023/02/09 10:54:58;;;;;;;16.90;10.50;;;;;;;2.40;69.42;102429.93;105499;1257;60403;-56
2023/02/09 10:57:34;;;;;;;15.60;9.50;;;;;;;2.35;72.31;102435.49;105325;1257;61302;-55
2023/02/09 11:00:15;;;;;;;29.80;16.60;;;;;;;2.43;74.89;102430.16;105620;1252;75289;-58
2023/02/09 11:02:51;;;;;;;18.10;11.10;;;;;;;2.54;74.51;102426.19;105444;1253;67731;-55
2023/02/09 11:05:19;;;;;;;14.60;9.50;;;;;;;2.66;74.56;102422.63;105545;1253;74204;-55
2023/02/09 11:08:16;;;;;;;14.40;9.30;;;;;;;2.79;72.15;102415.61;105442;1256;60399;-55
2023/02/09 11:11:04;;;;;;;22.40;11.90;;;;;;;2.87;72.00;102412.09;105342;1258;60895;-54
2023/02/09 11:13:33;;;;;;;14.20;8.30;;;;;;;2.96;70.27;102408.04;105498;1256;75383;-56
2023/02/09 11:16:20;;;;;;;13.60;7.30;;;;;;;3.01;68.73;102407.77;105373;1257;68196;-54
2023/02/09 11:19:24;;;;;;;10.50;6.30;;;;;;;3.17;70.72;102406.39;105509;1253;74240;-57
2023/02/09 11:22:12;;;;;;;9.60;5.80;;;;;;;3.48;67.24;102401.13;105451;1259;61095;-55
2023/02/09 11:24:54;;;;;;;10.40;6.10;;;;;;;3.53;62.47;102401.16;105354;1253;61288;-58